Time;durP1;ratioP1;P1;durP2;ratioP2;P2;SDS_P1;SDS_P2;PMS_P1;PMS_P2;Temp;Humidity;BMP_temperature;BMP_pressure;BME280_temperature;BME280_humidity;BME280_pressure;Samples;Min_cycle;Max_cycle;Signal;HPM_P1;HPM_P2
2021/12/20 00:02:12;;;;;;;17.03;12.73;;;;;;;0.67;100.00;96595.72;5053635;28;24424;-71
2021/12/20 00:04:39;;;;;;;20.02;13.20;;;;;;;0.59;100.00;96600.88;5053534;28;24896;-70
2021/12/20 00:07:07;;;;;;;19.40;13.50;;;;;;;0.48;100.00;96587.41;5053317;28;24430;-71
2021/12/20 00:09:34;;;;;;;29.65;12.85;;;;;;;0.46;100.00;96582.34;5053236;28;24953;-70
2021/12/20 00:12:00;;;;;;;18.42;12.40;;;;;;;0.53;100.00;96575.47;5053365;28;24998;-70
2021/12/20 00:14:27;;;;;;;15.75;12.25;;;;;;;0.58;100.00;96586.47;5053356;28;24419;-70
2021/12/20 00:16:53;;;;;;;14.52;11.85;;;;;;;0.63;100.00;96576.19;5053235;28;24461;-70
2021/12/20 00:19:20;;;;;;;19.23;12.77;;;;;;;0.67;100.00;96580.44;5053181;28;24538;-70
2021/12/20 00:21:47;;;;;;;18.90;12.98;;;;;;;0.73;100.00;96581.19;5053169;28;24888;-70
2021/12/20 00:24:14;;;;;;;16.67;13.13;;;;;;;0.72;100.00;96587.16;5053425;28;24431;-70
2021/12/20 00:26:41;;;;;;;17.08;12.32;;;;;;;0.72;100.00;96576.97;5053162;28;24426;-70
2021/12/20 00:29:07;;;;;;;17.73;13.00;;;;;;;0.71;100.00;96572.72;5053115;28;24427;-71
2021/12/20 00:31:34;;;;;;;15.30;12.60;;;;;;;0.71;100.00;96570.19;5053199;28;24407;-70
2021/12/20 00:34:00;;;;;;;23.17;12.35;;;;;;;0.76;100.00;96574.38;5053107;28;24415;-71
2021/12/20 00:36:29;;;;;;;20.77;13.50;;;;;;;0.85;100.00;96576.81;5052587;28;24465;-70
2021/12/20 00:41:41;;;;;;;23.67;13.35;;;;;;;0.69;100.00;96566.78;5053053;28;24770;-70
2021/12/20 00:44:08;;;;;;;19.45;14.90;;;;;;;0.62;100.00;96569.44;5052894;28;24431;-71
2021/12/20 00:46:34;;;;;;;21.92;14.90;;;;;;;0.59;100.00;96560.09;5052518;28;24415;-70
2021/12/20 00:49:01;;;;;;;21.85;15.65;;;;;;;0.56;100.00;96565.25;5052378;28;24544;-70
2021/12/20 00:51:27;;;;;;;16.63;13.07;;;;;;;0.65;100.00;96565.13;5052950;28;24418;-71
2021/12/20 00:53:54;;;;;;;20.88;16.00;;;;;;;0.61;100.00;96562.66;5051698;28;24423;-70
2021/12/20 00:56:20;;;;;;;28.48;19.05;;;;;;;0.53;100.00;96561.91;5052617;28;24473;-71
2021/12/20 00:58:48;;;;;;;26.38;19.02;;;;;;;0.59;100.00;96560.09;5052668;28;24457;-70
2021/12/20 01:01:14;;;;;;;26.83;17.98;;;;;;;0.65;100.00;96556.66;5052449;28;24447;-70
2021/12/20 01:03:41;;;;;;;24.00;17.55;;;;;;;0.63;100.00;96556.69;5052262;28;24774;-70
2021/12/20 01:06:08;;;;;;;26.98;15.98;;;;;;;0.61;100.00;96560.09;5052306;28;24468;-70
2021/12/20 01:08:37;;;;;;;24.30;17.08;;;;;;;0.54;100.00;96559.31;5052479;28;24813;-70
2021/12/20 01:11:04;;;;;;;20.88;16.98;;;;;;;0.56;100.00;96559.31;5052227;28;24940;-70
2021/12/20 01:13:33;;;;;;;27.83;18.25;;;;;;;0.51;100.00;96561.06;5052294;28;24777;-70
2021/12/20 01:16:05;;;;;;;28.50;18.27;;;;;;;0.44;100.00;96547.53;5051811;28;24459;-70
2021/12/20 01:18:31;;;;;;;22.67;16.55;;;;;;;0.50;100.00;96555.13;5052293;28;24438;-70
2021/12/20 01:20:58;;;;;;;19.05;14.82;;;;;;;0.51;100.00;96550.84;5052125;28;24439;-70
2021/12/20 01:23:24;;;;;;;19.55;15.68;;;;;;;0.48;100.00;96551.72;5052206;28;24419;-70
2021/12/20 01:25:50;;;;;;;22.70;14.68;;;;;;;0.51;100.00;96551.69;5051854;28;24498;-70
2021/12/20 01:28:17;;;;;;;18.42;14.45;;;;;;;0.58;100.00;96555.88;5051917;28;24445;-71
2021/12/20 01:30:44;;;;;;;20.55;14.45;;;;;;;0.60;100.00;96551.63;5051806;28;24423;-71
2021/12/20 01:33:13;;;;;;;20.58;14.23;;;;;;;0.68;100.00;96549.81;5052095;28;24430;-70
2021/12/20 01:35:40;;;;;;;16.42;13.75;;;;;;;0.70;100.00;96542.13;5051589;28;24423;-71
2021/12/20 01:38:08;;;;;;;16.70;13.83;;;;;;;0.70;100.00;96547.22;5051742;28;24414;-70
2021/12/20 01:40:36;;;;;;;26.98;16.98;;;;;;;0.57;100.00;96556.75;5051737;28;24435;-70
2021/12/20 01:43:03;;;;;;;22.67;15.20;;;;;;;0.48;100.00;96550.06;5051700;28;24465;-70
2021/12/20 01:45:30;;;;;;;19.40;14.27;;;;;;;0.54;100.00;96541.47;5051470;28;24419;-70
2021/12/20 01:48:05;;;;;;;18.55;14.02;;;;;;;0.58;100.00;96547.38;5051656;28;24430;-70
2021/12/20 01:50:41;;;;;;;20.02;13.55;;;;;;;0.61;100.00;96542.25;5051572;28;24419;-71
2021/12/20 01:53:08;;;;;;;15.80;12.88;;;;;;;0.64;100.00;96554.97;5051668;28;24454;-70
2021/12/20 01:55:35;;;;;;;17.33;13.40;;;;;;;0.67;100.00;96542.19;5051152;28;24828;-70
2021/12/20 01:58:02;;;;;;;16.98;13.57;;;;;;;0.58;100.00;96547.38;5051448;28;24494;-71
2021/12/20 02:00:30;;;;;;;17.58;14.18;;;;;;;0.42;100.00;96537.38;5051149;28;24435;-70
2021/12/20 02:03:00;;;;;;;18.63;13.70;;;;;;;0.36;100.00;96536.56;5051504;28;24527;-71
2021/12/20 02:05:39;;;;;;;16.17;13.30;;;;;;;0.41;100.00;96535.69;5051174;28;24474;-71
2021/12/20 02:08:18;;;;;;;17.48;13.55;;;;;;;0.54;100.00;96538.09;5051090;28;24831;-70
2021/12/20 02:10:45;;;;;;;18.13;13.85;;;;;;;0.52;100.00;96538.13;5051301;28;24769;-71
2021/12/20 02:13:12;;;;;;;15.60;12.85;;;;;;;0.46;100.00;96522.88;5051316;28;24419;-70
2021/12/20 02:15:38;;;;;;;15.98;12.88;;;;;;;0.54;100.00;96522.78;5050926;28;24431;-71
2021/12/20 02:18:05;;;;;;;16.23;13.00;;;;;;;0.58;100.00;96527.84;5050956;28;25022;-70
2021/12/20 02:20:35;;;;;;;16.93;13.57;;;;;;;0.65;100.00;96529.44;5050785;28;25059;-70
2021/12/20 02:23:02;;;;;;;17.23;13.82;;;;;;;0.73;100.00;96530.19;5050868;28;24419;-70
2021/12/20 02:25:30;;;;;;;18.50;13.27;;;;;;;0.71;100.00;96531.09;5050707;28;24968;-71
2021/12/20 02:28:02;;;;;;;18.90;14.48;;;;;;;0.54;100.00;96530.44;5050904;28;24418;-70
2021/12/20 02:30:50;;;;;;;22.25;15.10;;;;;;;0.54;100.00;96530.44;5050957;28;24422;-70
2021/12/20 02:38:49;;;;;;;16.67;13.27;;;;;;;0.63;100.00;96523.53;5050636;28;24904;-70
2021/12/20 02:41:17;;;;;;;15.50;13.10;;;;;;;0.66;100.00;96525.19;5050608;28;24446;-70
2021/12/20 02:43:52;;;;;;;24.00;13.97;;;;;;;0.67;100.00;96530.28;5050422;28;24423;-70
2021/12/20 02:46:29;;;;;;;17.95;13.32;;;;;;;0.67;100.00;96521.81;5050310;28;24933;-70
2021/12/20 02:48:56;;;;;;;15.25;13.07;;;;;;;0.64;100.00;96519.28;5050888;28;24948;-70
2021/12/20 02:51:26;;;;;;;18.40;13.57;;;;;;;0.54;100.00;96517.69;5050476;28;24941;-71
2021/12/20 02:53:54;;;;;;;16.75;12.93;;;;;;;0.46;100.00;96507.59;5050540;28;24423;-70
2021/12/20 02:56:20;;;;;;;16.77;13.27;;;;;;;0.48;100.00;96511.81;5050067;28;24419;-70
2021/12/20 02:58:47;;;;;;;17.95;13.52;;;;;;;0.50;100.00;96508.41;5050600;28;24415;-70
2021/12/20 03:01:13;;;;;;;17.33;13.80;;;;;;;0.48;100.00;96508.41;5050364;28;24848;-70
2021/12/20 03:03:41;;;;;;;19.10;13.25;;;;;;;0.51;100.00;96505.81;5050355;28;24990;-70
2021/12/20 03:06:10;;;;;;;16.00;12.77;;;;;;;0.55;100.00;96507.47;5050052;28;24421;-70
2021/12/20 03:08:39;;;;;;;15.38;12.07;;;;;;;0.59;100.00;96506.56;5050129;28;24446;-70
2021/12/20 03:11:06;;;;;;;18.30;13.32;;;;;;;0.60;100.00;96503.19;5050462;28;24469;-71
2021/12/20 03:13:33;;;;;;;14.40;12.35;;;;;;;0.64;100.00;96504.00;5050468;28;24425;-71
2021/12/20 03:15:59;;;;;;;19.67;13.07;;;;;;;0.64;100.00;96498.88;5050077;28;24427;-71
2021/12/20 03:18:25;;;;;;;19.27;12.60;;;;;;;0.69;100.00;96499.66;5052993;28;24423;-70
2021/12/20 03:20:52;;;;;;;15.65;12.10;;;;;;;0.70;100.00;96498.78;5054583;28;24628;-70
2021/12/20 03:23:18;;;;;;;15.60;12.35;;;;;;;0.64;100.00;96493.78;5054198;28;24426;-71
2021/12/20 03:25:46;;;;;;;13.95;12.18;;;;;;;0.60;100.00;96494.69;5054225;28;24498;-71
2021/12/20 03:28:13;;;;;;;15.23;11.53;;;;;;;0.60;100.00;96492.97;5054091;28;24965;-71
2021/12/20 03:30:40;;;;;;;14.02;11.32;;;;;;;0.59;100.00;96483.63;5054167;28;24415;-71
2021/12/20 03:33:06;;;;;;;13.05;11.65;;;;;;;0.56;100.00;96496.44;5054350;28;24419;-71
2021/12/20 03:35:33;;;;;;;14.75;11.55;;;;;;;0.56;100.00;96491.34;5053847;28;24423;-71
2021/12/20 03:37:59;;;;;;;13.00;11.60;;;;;;;0.59;100.00;96492.97;5054233;28;24952;-70
2021/12/20 03:40:26;;;;;;;15.25;11.77;;;;;;;0.56;100.00;96491.34;5054182;28;24466;-70
2021/12/20 03:42:53;;;;;;;12.95;11.55;;;;;;;0.54;100.00;96487.94;5054299;28;24770;-70
2021/12/20 03:45:20;;;;;;;23.20;12.40;;;;;;;0.40;100.00;96495.75;5053596;28;24434;-70
2021/12/20 03:47:46;;;;;;;15.73;13.00;;;;;;;0.25;100.00;96490.81;5053910;28;24438;-70
2021/12/20 03:50:14;;;;;;;19.40;13.93;;;;;;;0.17;100.00;96484.97;5053945;28;24434;-71
2021/12/20 03:52:41;;;;;;;14.65;12.23;;;;;;;0.25;100.00;96501.03;5054020;28;24422;-70
2021/12/20 03:55:09;;;;;;;18.65;12.00;;;;;;;0.35;100.00;96501.78;5053589;28;25433;-71
2021/12/20 03:57:36;;;;;;;14.50;12.73;;;;;;;0.40;100.00;96498.28;5053834;28;24415;-71
2021/12/20 04:00:06;;;;;;;14.52;12.18;;;;;;;0.43;100.00;96505.91;5053640;28;24415;-71
2021/12/20 04:02:38;;;;;;;14.38;12.43;;;;;;;0.50;100.00;96508.41;5053485;28;24777;-70
2021/12/20 04:05:04;;;;;;;16.17;12.02;;;;;;;0.54;100.00;96510.88;5053408;28;24423;-71
2021/12/20 04:07:32;;;;;;;15.32;11.57;;;;;;;0.58;100.00;96517.63;5053482;28;24430;-71
2021/12/20 04:09:58;;;;;;;13.45;12.05;;;;;;;1.06;100.00;96511.94;5053698;28;24422;-70
2021/12/20 04:12:24;;;;;;;15.65;12.13;;;;;;;0.95;100.00;96514.63;5053892;28;24438;-70
2021/12/20 04:14:51;;;;;;;18.73;13.18;;;;;;;0.59;100.00;96506.56;5053395;28;24411;-70
2021/12/20 04:17:19;;;;;;;14.80;12.50;;;;;;;0.40;100.00;96505.09;5052987;28;24470;-70
2021/12/20 04:19:45;;;;;;;16.42;14.10;;;;;;;0.30;100.00;96506.94;5053411;28;24438;-70
2021/12/20 04:22:12;;;;;;;21.67;14.93;;;;;;;0.40;100.00;96505.09;5053455;28;24784;-70
2021/12/20 04:24:38;;;;;;;15.32;13.27;;;;;;;0.43;100.00;96505.91;5053306;28;24418;-70
2021/12/20 04:27:05;;;;;;;14.23;12.75;;;;;;;0.41;100.00;96505.09;5053014;28;24423;-70
2021/12/20 04:29:31;;;;;;;20.38;14.15;;;;;;;0.27;100.00;96501.03;5053038;28;24423;-70
2021/12/20 04:31:59;;;;;;;13.80;12.38;;;;;;;0.17;100.00;96503.66;5053378;28;24419;-70
2021/12/20 04:34:27;;;;;;;14.38;12.68;;;;;;;0.17;100.00;96508.75;5053019;28;24527;-70
2021/12/20 04:36:54;;;;;;;17.73;12.30;;;;;;;0.20;100.00;96505.31;5052936;28;24415;-71
2021/12/20 04:39:24;;;;;;;12.52;10.63;;;;;;;0.30;100.00;96500.97;5052900;28;24442;-70
2021/12/20 04:41:51;;;;;;;14.75;10.93;;;;;;;0.36;100.00;96500.91;5052897;28;24493;-71
2021/12/20 04:44:17;;;;;;;13.48;10.02;;;;;;;0.39;100.00;96499.16;5052802;28;24469;-71
2021/12/20 04:46:44;;;;;;;14.18;10.93;;;;;;;0.44;100.00;96501.66;5052459;28;24485;-71
2021/12/20 04:49:10;;;;;;;23.63;10.82;;;;;;;0.46;100.00;96500.78;5052658;28;24427;-71
2021/12/20 04:51:38;;;;;;;26.13;9.40;;;;;;;0.42;100.00;96505.94;5052752;28;24412;-70
2021/12/20 04:54:05;;;;;;;15.47;9.57;;;;;;;0.43;100.00;96508.47;5052798;28;24426;-70
2021/12/20 04:56:31;;;;;;;10.30;9.30;;;;;;;0.47;100.00;96505.00;5052446;28;24422;-70
2021/12/20 04:58:58;;;;;;;15.02;10.60;;;;;;;0.40;100.00;96510.19;5052686;28;24454;-70
2021/12/20 05:01:24;;;;;;;11.38;9.40;;;;;;;0.38;100.00;96504.28;5052660;28;24450;-70
2021/12/20 05:03:51;;;;;;;14.27;9.82;;;;;;;0.26;100.00;96501.84;5052755;28;24415;-70
2021/12/20 05:06:17;;;;;;;13.93;10.77;;;;;;;0.17;100.00;96503.66;5052251;28;24450;-70
2021/12/20 05:08:49;;;;;;;11.88;10.63;;;;;;;0.20;100.00;96501.06;5052405;28;24504;-70
2021/12/20 05:11:15;;;;;;;13.82;11.88;;;;;;;0.29;100.00;96505.22;5052471;28;24438;-70
2021/12/20 05:13:42;;;;;;;15.18;11.65;;;;;;;0.55;100.00;96511.72;5044975;28;24432;-70
2021/12/20 05:16:09;;;;;;;14.07;11.52;;;;;;;0.59;100.00;96508.28;5032178;28;24427;-70
2021/12/20 05:18:36;;;;;;;13.20;11.82;;;;;;;0.36;100.00;96500.91;5032401;28;24477;-70
2021/12/20 05:21:02;;;;;;;16.25;13.55;;;;;;;0.17;100.00;96497.72;5037432;28;24856;-70
2021/12/20 05:23:29;;;;;;;14.00;12.50;;;;;;;0.23;100.00;96501.03;5052072;28;24608;-71
2021/12/20 05:25:56;;;;;;;15.95;12.20;;;;;;;0.47;100.00;96502.47;5051716;28;24423;-71
2021/12/20 05:28:23;;;;;;;17.70;13.07;;;;;;;0.83;100.00;96515.63;5051675;28;25039;-71
2021/12/20 05:30:52;;;;;;;15.93;12.88;;;;;;;0.87;100.00;96508.78;5052061;28;24454;-71
2021/12/20 05:33:18;;;;;;;13.07;11.48;;;;;;;0.65;100.00;96513.31;5051542;28;25031;-70
2021/12/20 05:35:45;;;;;;;15.32;12.05;;;;;;;0.99;100.00;96516.28;5051615;28;24418;-70
2021/12/20 05:38:11;;;;;;;16.67;12.02;;;;;;;1.32;100.00;96511.56;5051661;28;24415;-70
2021/12/20 05:40:38;;;;;;;15.40;12.70;;;;;;;1.32;100.00;96519.22;5031221;28;24415;-69
2021/12/20 05:43:05;;;;;;;15.23;13.10;;;;;;;0.81;100.00;96513.97;5032246;28;24415;-70
2021/12/20 05:45:33;;;;;;;17.83;14.63;;;;;;;0.35;100.00;96523.00;5031583;28;24419;-70
2021/12/20 05:47:59;;;;;;;18.88;14.00;;;;;;;0.22;100.00;96513.78;5031768;28;24813;-69
2021/12/20 05:50:26;;;;;;;21.27;13.85;;;;;;;0.14;100.00;96515.56;5031493;28;24988;-70
2021/12/20 05:52:52;;;;;;;14.93;13.40;;;;;;;0.08;100.00;96510.56;5031923;28;24415;-70
2021/12/20 05:55:19;;;;;;;13.07;11.77;;;;;;;0.11;100.00;96513.91;5031183;28;24473;-70
2021/12/20 05:57:46;;;;;;;14.77;12.55;;;;;;;0.21;100.00;96512.94;5031697;28;24491;-69
2021/12/20 06:00:18;;;;;;;25.45;15.38;;;;;;;0.31;100.00;96525.59;5031651;28;24798;-69
2021/12/20 06:02:47;;;;;;;18.53;14.87;;;;;;;0.31;100.00;96520.50;5031410;28;24446;-69
2021/12/20 06:05:14;;;;;;;19.67;15.27;;;;;;;0.31;100.00;96528.16;5031125;28;24426;-71
2021/12/20 06:07:42;;;;;;;31.00;14.68;;;;;;;0.33;100.00;96527.25;5031042;28;24467;-70
2021/12/20 06:10:12;;;;;;;13.63;12.15;;;;;;;0.34;100.00;96535.75;5031405;28;24459;-69
2021/12/20 06:12:39;;;;;;;22.15;12.77;;;;;;;0.39;100.00;96531.44;5031626;28;24425;-70
2021/12/20 06:15:07;;;;;;;22.48;12.90;;;;;;;0.27;100.00;96534.97;5034460;28;24443;-70
2021/12/20 06:17:35;;;;;;;14.43;12.93;;;;;;;0.27;100.00;96527.34;5050823;28;24449;-70
2021/12/20 06:20:02;;;;;;;15.80;13.13;;;;;;;0.28;100.00;96540.91;5049280;28;24526;-71
2021/12/20 06:22:28;;;;;;;15.20;12.63;;;;;;;0.14;100.00;96524.06;5036150;28;24502;-70
2021/12/20 06:24:55;;;;;;;13.38;11.98;;;;;;;0.19;100.00;96522.31;5029421;28;24423;-70
2021/12/20 06:27:22;;;;;;;15.73;13.80;;;;;;;0.28;100.00;96534.09;5031372;28;24439;-70
2021/12/20 06:29:49;;;;;;;14.23;11.82;;;;;;;0.30;100.00;96528.97;5039694;28;24447;-71
2021/12/20 06:32:15;;;;;;;12.85;11.48;;;;;;;0.33;100.00;96532.34;5050447;28;24428;-71
2021/12/20 06:34:43;;;;;;;13.93;12.27;;;;;;;0.37;100.00;96540.81;5050954;28;24506;-72
2021/12/20 06:37:11;;;;;;;19.55;13.13;;;;;;;0.30;100.00;96544.28;5050434;28;25010;-70
2021/12/20 06:39:37;;;;;;;13.80;12.25;;;;;;;0.38;100.00;96543.34;5050958;28;24485;-71
2021/12/20 06:42:05;;;;;;;14.70;13.15;;;;;;;0.28;100.00;96539.22;5050791;28;24493;-74
2021/12/20 06:44:31;;;;;;;15.93;12.50;;;;;;;0.24;100.00;96537.56;5050852;28;24415;-70
2021/12/20 06:46:58;;;;;;;16.30;12.88;;;;;;;0.29;100.00;96543.44;5050411;28;24423;-71
2021/12/20 06:49:25;;;;;;;13.13;11.73;;;;;;;0.47;100.00;96532.22;5050378;28;24832;-74
2021/12/20 06:51:55;;;;;;;15.15;12.27;;;;;;;0.59;100.00;96541.41;5049504;28;24427;-72
2021/12/20 06:54:22;;;;;;;12.32;11.02;;;;;;;0.57;100.00;96532.97;5050607;28;24467;-71
2021/12/20 06:56:49;;;;;;;13.35;9.63;;;;;;;0.52;100.00;96529.59;5050312;28;24883;-71
2021/12/20 06:59:15;;;;;;;11.00;9.90;;;;;;;0.47;100.00;96539.84;5049833;28;24971;-71
2021/12/20 07:01:42;;;;;;;10.02;9.02;;;;;;;0.42;100.00;96537.38;5050207;28;24450;-72
2021/12/20 07:04:09;;;;;;;10.98;8.82;;;;;;;0.48;100.00;96539.84;5049718;28;24510;-70
2021/12/20 07:06:36;;;;;;;9.77;8.83;;;;;;;0.50;100.00;96537.28;5035737;28;24532;-72
2021/12/20 07:09:03;;;;;;;9.35;8.45;;;;;;;0.55;100.00;96537.22;5041116;28;24478;-72
2021/12/20 07:11:30;;;;;;;9.50;8.50;;;;;;;0.57;100.00;96538.91;5050166;28;24821;-74
2021/12/20 07:13:56;;;;;;;9.38;8.45;;;;;;;0.58;100.00;96550.78;5049900;28;24415;-71
2021/12/20 07:16:23;;;;;;;7.93;7.20;;;;;;;0.61;100.00;96542.25;5049303;28;24427;-71
2021/12/20 07:18:50;;;;;;;8.57;7.68;;;;;;;0.59;100.00;96547.34;5049642;28;24915;-70
2021/12/20 07:21:17;;;;;;;10.57;9.30;;;;;;;0.55;100.00;96544.88;5049447;28;24481;-71
2021/12/20 07:23:43;;;;;;;15.23;12.48;;;;;;;0.59;100.00;96549.06;5050134;28;24442;-70
2021/12/20 07:26:12;;;;;;;15.25;11.25;;;;;;;0.53;100.00;96544.91;5050059;28;24422;-70
2021/12/20 07:28:40;;;;;;;12.55;9.30;;;;;;;0.61;100.00;96549.91;5050115;28;24430;-70
2021/12/20 07:31:07;;;;;;;10.43;9.35;;;;;;;0.62;100.00;96544.78;5050128;28;24415;-70
2021/12/20 07:33:33;;;;;;;12.93;9.47;;;;;;;0.63;100.00;96551.59;5050416;28;24506;-72
2021/12/20 07:36:00;;;;;;;10.88;9.02;;;;;;;0.59;100.00;96552.44;5049759;28;24485;-70
2021/12/20 07:38:26;;;;;;;10.70;9.27;;;;;;;0.50;100.00;96550.03;5050160;28;24430;-70
2021/12/20 07:40:54;;;;;;;11.60;8.48;;;;;;;0.56;100.00;96544.03;5050139;28;24418;-71
2021/12/20 07:43:22;;;;;;;12.98;9.20;;;;;;;0.57;100.00;96548.25;5049861;28;24517;-70
2021/12/20 07:45:49;;;;;;;15.35;13.52;;;;;;;0.63;100.00;96556.69;5049661;28;24419;-70
2021/12/20 07:48:17;;;;;;;13.60;10.18;;;;;;;0.55;100.00;96558.44;5050060;28;24473;-70
2021/12/20 07:50:43;;;;;;;11.35;9.05;;;;;;;0.57;100.00;96550.81;5046104;28;24436;-73
2021/12/20 07:53:10;;;;;;;9.15;7.72;;;;;;;0.64;100.00;96550.72;5030008;28;24420;-70
2021/12/20 07:55:37;;;;;;;9.02;8.13;;;;;;;0.66;100.00;96550.69;5029786;28;24470;-72
2021/12/20 07:58:03;;;;;;;11.80;9.13;;;;;;;0.68;100.00;96559.16;5029736;28;25011;-72
2021/12/20 08:00:31;;;;;;;11.50;10.07;;;;;;;0.69;100.00;96558.31;5030199;28;24427;-72
2021/12/20 08:02:58;;;;;;;12.38;9.38;;;;;;;0.68;100.00;96559.16;5030132;28;25204;-76
2021/12/20 08:05:25;;;;;;;9.95;8.30;;;;;;;0.67;100.00;96554.94;5033870;28;24419;-71
2021/12/20 08:07:52;;;;;;;8.80;7.47;;;;;;;0.59;100.00;96559.25;5033569;28;24427;-73
2021/12/20 08:10:19;;;;;;;8.65;7.63;;;;;;;0.62;100.00;96560.06;5033433;28;24554;-72
2021/12/20 08:12:46;;;;;;;8.80;7.90;;;;;;;0.78;100.00;96562.44;5033233;28;24426;-75
2021/12/20 08:15:14;;;;;;;9.63;7.70;;;;;;;0.78;100.00;96567.53;5033344;28;24481;-75
2021/12/20 08:17:42;;;;;;;9.55;7.40;;;;;;;0.78;100.00;96567.53;5033360;28;24976;-75
2021/12/20 08:20:10;;;;;;;7.22;6.57;;;;;;;0.78;100.00;96573.50;5034728;28;24432;-77
2021/12/20 08:22:37;;;;;;;8.82;7.93;;;;;;;0.94;100.00;96564.81;5054423;28;24984;-77
2021/12/20 08:25:04;;;;;;;8.25;7.40;;;;;;;1.00;100.00;96566.41;5054942;28;24442;-77
2021/12/20 08:27:31;;;;;;;9.70;7.85;;;;;;;0.90;100.00;96570.81;5054667;28;24972;-76
2021/12/20 08:29:58;;;;;;;8.75;7.50;;;;;;;0.81;100.00;96564.97;5055204;28;24420;-77
2021/12/20 08:32:25;;;;;;;10.48;7.93;;;;;;;0.81;100.00;96568.34;5053887;28;25053;-73
2021/12/20 08:34:53;;;;;;;10.98;7.68;;;;;;;0.94;100.00;96577.56;5053304;28;24590;-74
2021/12/20 08:37:20;;;;;;;9.20;7.88;;;;;;;1.05;100.00;96567.22;5052998;28;24419;-74
2021/12/20 08:39:46;;;;;;;9.40;7.93;;;;;;;1.02;100.00;96569.81;5053238;28;24430;-73
2021/12/20 08:42:13;;;;;;;9.27;8.38;;;;;;;0.94;100.00;96580.09;5036540;28;24810;-74
2021/12/20 08:44:39;;;;;;;8.95;7.93;;;;;;;0.95;100.00;96568.19;5033208;28;24418;-75
2021/12/20 08:47:06;;;;;;;10.15;9.13;;;;;;;0.95;100.00;96580.94;5032988;28;24466;-75
2021/12/20 08:49:33;;;;;;;9.93;8.93;;;;;;;0.93;100.00;96575.88;5033502;28;24965;-75
2021/12/20 08:52:01;;;;;;;8.77;7.88;;;;;;;0.92;100.00;96580.97;5046735;28;24450;-73
2021/12/20 08:54:29;;;;;;;10.13;8.70;;;;;;;0.95;100.00;96573.28;5052645;28;24976;-74
2021/12/20 08:56:55;;;;;;;10.00;8.60;;;;;;;0.98;100.00;96573.25;5051821;28;25063;-73
2021/12/20 08:59:22;;;;;;;11.00;9.27;;;;;;;1.05;100.00;96586.78;5032621;28;25000;-74
2021/12/20 09:01:49;;;;;;;12.70;9.40;;;;;;;1.13;100.00;96582.44;5032802;28;24446;-73
2021/12/20 09:04:16;;;;;;;13.98;10.93;;;;;;;1.08;100.00;96582.50;5032178;28;24439;-74
2021/12/20 09:06:43;;;;;;;12.43;11.02;;;;;;;1.08;100.00;96590.16;5032299;28;25026;-74
2021/12/20 09:09:14;;;;;;;16.40;13.70;;;;;;;1.15;100.00;96588.34;5032759;28;24479;-77
2021/12/20 09:11:42;;;;;;;18.00;15.50;;;;;;;1.08;100.00;96586.75;5033029;28;24508;-77
2021/12/20 09:14:09;;;;;;;17.15;13.85;;;;;;;1.12;100.00;96588.41;5032832;28;24456;-77
2021/12/20 09:16:35;;;;;;;15.23;13.07;;;;;;;1.18;100.00;96598.50;5031605;28;24493;-77
2021/12/20 09:19:03;;;;;;;18.60;13.18;;;;;;;1.22;100.00;96592.50;5032444;28;24444;-76
2021/12/20 09:21:29;;;;;;;23.33;16.75;;;;;;;1.23;100.00;96591.66;5042839;28;24535;-77
2021/12/20 09:23:56;;;;;;;27.48;20.17;;;;;;;1.25;100.00;96596.72;5053233;28;24450;-77
2021/12/20 09:26:25;;;;;;;36.70;20.10;;;;;;;1.27;100.00;96593.31;5052687;28;24456;-75
2021/12/20 09:28:52;;;;;;;20.40;14.98;;;;;;;1.27;100.00;96595.84;5052268;28;24493;-75
2021/12/20 09:31:18;;;;;;;22.63;15.73;;;;;;;1.32;100.00;96600.91;5052242;28;24438;-76
2021/12/20 09:33:45;;;;;;;19.25;14.60;;;;;;;1.24;100.00;96592.50;5052107;28;24415;-78
2021/12/20 09:36:11;;;;;;;17.95;14.52;;;;;;;1.27;100.00;96590.75;5052176;28;24506;-77
2021/12/20 09:38:38;;;;;;;16.30;12.80;;;;;;;1.33;100.00;96589.81;5052552;28;24426;-77
2021/12/20 09:41:17;;;;;;;28.57;18.87;;;;;;;1.47;100.00;96592.19;5052269;28;24446;-76
2021/12/20 09:43:47;;;;;;;34.30;20.67;;;;;;;1.48;100.00;96597.25;5052860;28;25003;-77
2021/12/20 09:46:15;;;;;;;22.27;15.00;;;;;;;1.58;100.00;96596.28;5054185;28;24431;-76
2021/12/20 09:48:44;;;;;;;16.08;12.45;;;;;;;1.58;100.00;96593.72;5036631;28;24440;-77
2021/12/20 09:51:12;;;;;;;16.60;12.18;;;;;;;1.61;100.00;96593.69;5039381;28;24474;-77
2021/12/20 09:53:38;;;;;;;15.13;11.33;;;;;;;1.63;100.00;96589.41;5051693;28;24937;-76
2021/12/20 09:56:06;;;;;;;16.60;12.38;;;;;;;1.65;100.00;96586.81;5051571;28;24438;-76
2021/12/20 09:58:36;;;;;;;12.95;11.65;;;;;;;1.72;100.00;96601.19;5051602;28;24454;-76
2021/12/20 10:01:06;;;;;;;15.18;11.10;;;;;;;1.75;100.00;96600.31;5051680;28;24453;-76
2021/12/20 10:03:33;;;;;;;11.23;10.13;;;;;;;1.93;100.00;96600.03;5051743;28;24443;-76
2021/12/20 10:06:00;;;;;;;12.40;11.10;;;;;;;2.04;100.00;96599.84;5050941;28;24431;-76
2021/12/20 10:08:33;;;;;;;12.27;9.88;;;;;;;2.01;100.00;96589.69;5051313;28;24427;-75
2021/12/20 10:11:01;;;;;;;12.63;11.13;;;;;;;2.10;100.00;96589.53;5051259;28;24510;-75
2021/12/20 10:13:30;;;;;;;15.35;11.80;;;;;;;2.19;100.00;96579.16;5051569;28;24419;-75
2021/12/20 10:15:58;;;;;;;15.13;11.83;;;;;;;2.38;100.00;96580.53;5050780;28;25042;-75
2021/12/20 10:18:27;;;;;;;16.50;12.88;;;;;;;2.25;100.00;96586.69;5051151;28;24423;-75
2021/12/20 10:20:55;;;;;;;18.17;13.57;;;;;;;2.31;100.00;96588.31;5045688;28;24554;-75
2021/12/20 10:23:24;;;;;;;17.00;12.85;;;;;;;2.24;100.00;96587.59;5030955;28;24857;-75
2021/12/20 10:25:53;;;;;;;14.20;12.63;;;;;;;2.41;100.00;96583.03;5030708;28;24490;-75
2021/12/20 10:28:23;;;;;;;16.35;13.48;;;;;;;2.53;100.00;96581.97;5030804;28;24448;-76
2021/12/20 10:30:53;;;;;;;17.45;12.60;;;;;;;2.74;100.00;96592.66;5030809;28;25035;-76
2021/12/20 10:33:21;;;;;;;19.67;13.00;;;;;;;2.70;100.00;96580.78;5030922;28;24949;-76
2021/12/20 10:35:52;;;;;;;13.73;12.23;;;;;;;2.89;100.00;96574.44;5030611;28;24450;-76
2021/12/20 10:38:26;;;;;;;14.02;11.43;;;;;;;3.01;100.00;96576.78;5030739;28;24435;-76
2021/12/20 10:40:55;;;;;;;13.85;11.32;;;;;;;3.29;100.00;96584.72;5030567;28;24431;-76
2021/12/20 10:43:23;;;;;;;14.68;11.50;;;;;;;3.36;100.00;96578.59;5031039;28;24451;-75
2021/12/20 10:45:51;;;;;;;12.93;11.30;;;;;;;3.37;100.00;96572.63;5030190;28;24969;-76
2021/12/20 10:48:18;;;;;;;14.65;11.77;;;;;;;3.30;100.00;96567.63;5030640;28;24442;-75
2021/12/20 10:50:45;;;;;;;17.67;12.25;;;;;;;3.31;100.00;96567.63;5034145;28;24435;-76
2021/12/20 10:53:19;;;;;;;14.80;11.20;;;;;;;3.27;100.00;96563.44;5042669;28;24452;-76
2021/12/20 10:55:47;;;;;;;14.25;11.43;;;;;;;3.28;100.00;96570.25;5030459;28;24507;-76
2021/12/20 10:58:30;;;;;;;19.85;12.73;;;;;;;3.37;100.00;96566.63;5030603;28;24428;-75
2021/12/20 11:01:17;;;;;;;16.10;12.55;;;;;;;3.26;100.00;96566.84;5030528;28;24447;-75
2021/12/20 11:03:54;;;;;;;25.90;13.57;;;;;;;3.26;100.00;96564.28;5030037;28;24573;-77
2021/12/20 11:09:15;;;;;;;21.17;13.37;;;;;;;3.11;100.00;96562.06;5030321;28;24505;-75
2021/12/20 11:11:48;;;;;;;27.40;14.13;;;;;;;3.09;100.00;96559.53;5030947;28;24435;-77
2021/12/20 11:14:15;;;;;;;20.17;14.00;;;;;;;3.21;100.00;96562.72;5032836;28;24408;-77
2021/12/20 11:16:45;;;;;;;25.48;14.63;;;;;;;3.21;100.00;96558.44;5032307;28;24782;-77
2021/12/20 11:19:17;;;;;;;19.23;14.52;;;;;;;3.17;100.00;96554.25;5032934;28;24775;-77
2021/12/20 11:22:07;;;;;;;18.83;14.90;;;;;;;3.18;100.00;96560.22;5045937;28;24495;-79
2021/12/20 11:24:40;;;;;;;23.37;14.90;;;;;;;3.32;100.00;96555.66;5047479;28;24591;-73
2021/12/20 11:27:10;;;;;;;17.85;12.95;;;;;;;3.60;100.00;96556.72;5050002;28;24477;-72
2021/12/20 11:29:38;;;;;;;13.48;10.05;;;;;;;3.56;100.00;96550.00;5050449;28;24470;-72
2021/12/20 11:32:07;;;;;;;17.95;11.10;;;;;;;3.59;100.00;96555.03;5050223;28;24415;-74
2021/12/20 11:34:34;;;;;;;17.75;12.68;;;;;;;3.51;100.00;96556.09;5050229;28;24426;-72